sensor_id;sensor_type;location;lat;lon;timestamp;P1;durP1;ratioP1;P2;durP2;ratioP2
27013;SDS011;14556;52.222;4.510;2023-02-28T00:00:18;4.63;;;2.00;;
27013;SDS011;14556;52.222;4.510;2023-02-28T00:02:45;5.03;;;2.07;;
27013;SDS011;14556;52.222;4.510;2023-02-28T00:05:12;5.37;;;2.20;;
27013;SDS011;14556;52.222;4.510;2023-02-28T00:07:39;6.83;;;2.00;;
27013;SDS011;14556;52.222;4.510;2023-02-28T00:10:06;6.60;;;2.23;;
27013;SDS011;14556;52.222;4.510;2023-02-28T00:12:34;7.33;;;2.00;;
27013;SDS011;14556;52.222;4.510;2023-02-28T00:15:00;6.27;;;1.73;;
27013;SDS011;14556;52.222;4.510;2023-02-28T00:17:27;5.17;;;2.03;;
27013;SDS011;14556;52.222;4.510;2023-02-28T00:19:53;7.00;;;1.97;;
27013;SDS011;14556;52.222;4.510;2023-02-28T00:22:20;4.63;;;2.33;;
27013;SDS011;14556;52.222;4.510;2023-02-28T00:24:46;3.43;;;1.93;;
27013;SDS011;14556;52.222;4.510;2023-02-28T00:27:14;4.60;;;1.93;;
27013;SDS011;14556;52.222;4.510;2023-02-28T00:29:40;3.93;;;2.10;;
27013;SDS011;14556;52.222;4.510;2023-02-28T00:32:06;5.47;;;2.50;;
27013;SDS011;14556;52.222;4.510;2023-02-28T00:34:33;5.10;;;1.80;;
27013;SDS011;14556;52.222;4.510;2023-02-28T00:37:04;8.50;;;2.43;;
27013;SDS011;14556;52.222;4.510;2023-02-28T00:39:31;4.53;;;1.90;;
27013;SDS011;14556;52.222;4.510;2023-02-28T00:41:59;3.23;;;1.93;;
27013;SDS011;14556;52.222;4.510;2023-02-28T00:44:25;3.43;;;2.20;;
27013;SDS011;14556;52.222;4.510;2023-02-28T00:46:51;4.77;;;1.90;;
27013;SDS011;14556;52.222;4.510;2023-02-28T00:49:22;4.20;;;2.27;;
27013;SDS011;14556;52.222;4.510;2023-02-28T00:51:49;4.60;;;2.20;;
27013;SDS011;14556;52.222;4.510;2023-02-28T00:54:15;7.33;;;2.17;;
27013;SDS011;14556;52.222;4.510;2023-02-28T00:56:42;7.20;;;2.30;;
27013;SDS011;14556;52.222;4.510;2023-02-28T00:59:08;6.20;;;2.40;;
27013;SDS011;14556;52.222;4.510;2023-02-28T01:01:35;6.50;;;2.63;;
27013;SDS011;14556;52.222;4.510;2023-02-28T01:04:01;6.27;;;2.40;;
27013;SDS011;14556;52.222;4.510;2023-02-28T01:06:27;5.53;;;1.73;;
27013;SDS011;14556;52.222;4.510;2023-02-28T01:08:54;2.93;;;2.07;;
27013;SDS011;14556;52.222;4.510;2023-02-28T01:11:20;3.10;;;2.10;;
27013;SDS011;14556;52.222;4.510;2023-02-28T01:13:47;7.83;;;2.33;;
27013;SDS011;14556;52.222;4.510;2023-02-28T01:16:13;4.00;;;2.50;;
27013;SDS011;14556;52.222;4.510;2023-02-28T01:18:39;7.17;;;2.40;;
27013;SDS011;14556;52.222;4.510;2023-02-28T01:21:07;3.60;;;2.10;;
27013;SDS011;14556;52.222;4.510;2023-02-28T01:23:33;13.10;;;2.77;;
27013;SDS011;14556;52.222;4.510;2023-02-28T01:26:07;6.67;;;2.73;;
27013;SDS011;14556;52.222;4.510;2023-02-28T01:28:34;4.90;;;2.10;;
27013;SDS011;14556;52.222;4.510;2023-02-28T01:31:00;7.37;;;2.93;;
27013;SDS011;14556;52.222;4.510;2023-02-28T01:33:27;4.43;;;2.60;;
27013;SDS011;14556;52.222;4.510;2023-02-28T01:35:58;6.10;;;2.03;;
27013;SDS011;14556;52.222;4.510;2023-02-28T01:38:24;6.53;;;3.00;;
27013;SDS011;14556;52.222;4.510;2023-02-28T01:40:51;3.97;;;2.33;;
27013;SDS011;14556;52.222;4.510;2023-02-28T01:45:46;4.03;;;2.60;;
27013;SDS011;14556;52.222;4.510;2023-02-28T01:48:13;5.30;;;2.50;;
27013;SDS011;14556;52.222;4.510;2023-02-28T01:50:40;5.90;;;3.07;;
27013;SDS011;14556;52.222;4.510;2023-02-28T01:53:08;4.13;;;2.30;;
27013;SDS011;14556;52.222;4.510;2023-02-28T01:55:36;4.40;;;3.13;;
27013;SDS011;14556;52.222;4.510;2023-02-28T01:58:04;9.83;;;2.47;;
27013;SDS011;14556;52.222;4.510;2023-02-28T02:00:31;7.70;;;2.43;;
27013;SDS011;14556;52.222;4.510;2023-02-28T02:02:58;6.70;;;2.77;;
27013;SDS011;14556;52.222;4.510;2023-02-28T02:05:26;4.63;;;2.30;;
27013;SDS011;14556;52.222;4.510;2023-02-28T02:07:57;3.27;;;2.30;;
27013;SDS011;14556;52.222;4.510;2023-02-28T02:10:27;8.17;;;2.43;;
27013;SDS011;14556;52.222;4.510;2023-02-28T02:15:49;5.20;;;2.57;;
27013;SDS011;14556;52.222;4.510;2023-02-28T02:23:53;6.87;;;2.97;;
27013;SDS011;14556;52.222;4.510;2023-02-28T02:37:08;7.27;;;2.57;;
27013;SDS011;14556;52.222;4.510;2023-02-28T02:39:44;4.83;;;2.67;;
27013;SDS011;14556;52.222;4.510;2023-02-28T02:42:14;4.67;;;2.63;;
27013;SDS011;14556;52.222;4.510;2023-02-28T02:44:52;7.20;;;3.03;;
27013;SDS011;14556;52.222;4.510;2023-02-28T02:47:22;3.80;;;2.97;;
27013;SDS011;14556;52.222;4.510;2023-02-28T02:49:53;8.60;;;2.70;;
27013;SDS011;14556;52.222;4.510;2023-02-28T02:52:22;5.67;;;2.70;;
27013;SDS011;14556;52.222;4.510;2023-02-28T02:54:50;9.30;;;3.27;;
27013;SDS011;14556;52.222;4.510;2023-02-28T02:57:26;5.33;;;2.67;;
27013;SDS011;14556;52.222;4.510;2023-02-28T02:59:53;7.63;;;2.83;;
27013;SDS011;14556;52.222;4.510;2023-02-28T03:02:22;7.00;;;3.00;;
27013;SDS011;14556;52.222;4.510;2023-02-28T03:04:51;10.00;;;2.50;;
27013;SDS011;14556;52.222;4.510;2023-02-28T03:07:18;5.70;;;2.63;;
27013;SDS011;14556;52.222;4.510;2023-02-28T03:09:51;3.73;;;2.07;;
27013;SDS011;14556;52.222;4.510;2023-02-28T03:12:19;6.03;;;2.80;;
27013;SDS011;14556;52.222;4.510;2023-02-28T03:20:23;11.90;;;2.90;;
27013;SDS011;14556;52.222;4.510;2023-02-28T03:23:00;6.17;;;2.83;;
27013;SDS011;14556;52.222;4.510;2023-02-28T03:25:38;9.57;;;3.60;;
27013;SDS011;14556;52.222;4.510;2023-02-28T03:28:16;4.17;;;2.67;;
27013;SDS011;14556;52.222;4.510;2023-02-28T03:30:54;6.67;;;2.50;;
27013;SDS011;14556;52.222;4.510;2023-02-28T03:33:25;7.97;;;2.83;;
27013;SDS011;14556;52.222;4.510;2023-02-28T03:36:12;12.13;;;3.27;;
27013;SDS011;14556;52.222;4.510;2023-02-28T03:38:47;6.53;;;2.67;;
27013;SDS011;14556;52.222;4.510;2023-02-28T03:41:17;4.87;;;2.73;;
27013;SDS011;14556;52.222;4.510;2023-02-28T03:43:49;5.90;;;3.40;;
27013;SDS011;14556;52.222;4.510;2023-02-28T03:46:16;6.00;;;3.20;;
27013;SDS011;14556;52.222;4.510;2023-02-28T03:48:49;6.93;;;2.90;;
27013;SDS011;14556;52.222;4.510;2023-02-28T03:51:17;8.90;;;2.53;;
27013;SDS011;14556;52.222;4.510;2023-02-28T03:53:46;7.07;;;3.40;;
27013;SDS011;14556;52.222;4.510;2023-02-28T03:56:22;7.63;;;2.87;;
27013;SDS011;14556;52.222;4.510;2023-02-28T04:01:20;4.47;;;2.30;;
27013;SDS011;14556;52.222;4.510;2023-02-28T04:03:49;6.07;;;3.47;;
27013;SDS011;14556;52.222;4.510;2023-02-28T04:06:16;4.43;;;2.90;;
27013;SDS011;14556;52.222;4.510;2023-02-28T04:08:43;7.67;;;3.03;;
27013;SDS011;14556;52.222;4.510;2023-02-28T04:13:39;6.23;;;2.83;;
27013;SDS011;14556;52.222;4.510;2023-02-28T04:16:06;8.30;;;3.20;;
27013;SDS011;14556;52.222;4.510;2023-02-28T04:18:49;6.43;;;3.53;;
27013;SDS011;14556;52.222;4.510;2023-02-28T04:21:16;8.53;;;2.80;;
27013;SDS011;14556;52.222;4.510;2023-02-28T04:23:46;4.70;;;2.77;;
27013;SDS011;14556;52.222;4.510;2023-02-28T04:26:13;4.90;;;3.20;;
27013;SDS011;14556;52.222;4.510;2023-02-28T04:28:39;7.63;;;3.10;;
27013;SDS011;14556;52.222;4.510;2023-02-28T04:31:05;4.93;;;2.37;;
27013;SDS011;14556;52.222;4.510;2023-02-28T04:33:32;5.03;;;2.90;;
27013;SDS011;14556;52.222;4.510;2023-02-28T04:36:03;6.70;;;2.40;;
27013;SDS011;14556;52.222;4.510;2023-02-28T04:38:37;5.50;;;2.73;;
27013;SDS011;14556;52.222;4.510;2023-02-28T04:41:04;8.63;;;2.63;;
27013;SDS011;14556;52.222;4.510;2023-02-28T04:43:31;6.13;;;2.93;;
27013;SDS011;14556;52.222;4.510;2023-02-28T04:46:00;7.17;;;3.27;;
27013;SDS011;14556;52.222;4.510;2023-02-28T04:48:27;7.83;;;3.27;;
27013;SDS011;14556;52.222;4.510;2023-02-28T04:50:54;7.50;;;2.97;;
27013;SDS011;14556;52.222;4.510;2023-02-28T04:53:21;9.50;;;3.20;;
27013;SDS011;14556;52.222;4.510;2023-02-28T04:55:47;7.43;;;2.77;;
27013;SDS011;14556;52.222;4.510;2023-02-28T04:58:14;7.30;;;3.33;;
27013;SDS011;14556;52.222;4.510;2023-02-28T05:00:40;10.47;;;3.33;;
27013;SDS011;14556;52.222;4.510;2023-02-28T05:03:06;5.53;;;3.20;;
27013;SDS011;14556;52.222;4.510;2023-02-28T05:05:33;7.33;;;3.07;;
27013;SDS011;14556;52.222;4.510;2023-02-28T05:07:59;12.90;;;4.13;;
27013;SDS011;14556;52.222;4.510;2023-02-28T05:10:26;13.77;;;3.70;;
27013;SDS011;14556;52.222;4.510;2023-02-28T05:12:52;8.47;;;3.47;;
27013;SDS011;14556;52.222;4.510;2023-02-28T05:15:18;4.90;;;3.23;;
27013;SDS011;14556;52.222;4.510;2023-02-28T05:17:44;8.90;;;3.30;;
27013;SDS011;14556;52.222;4.510;2023-02-28T05:20:12;8.90;;;3.77;;
27013;SDS011;14556;52.222;4.510;2023-02-28T05:22:41;6.37;;;3.40;;
27013;SDS011;14556;52.222;4.510;2023-02-28T05:25:11;8.67;;;4.13;;
27013;SDS011;14556;52.222;4.510;2023-02-28T05:27:39;5.17;;;3.47;;
27013;SDS011;14556;52.222;4.510;2023-02-28T05:30:07;8.43;;;3.43;;
27013;SDS011;14556;52.222;4.510;2023-02-28T05:32:37;6.03;;;3.13;;
27013;SDS011;14556;52.222;4.510;2023-02-28T05:35:03;10.23;;;4.50;;
27013;SDS011;14556;52.222;4.510;2023-02-28T05:37:30;8.03;;;3.73;;
27013;SDS011;14556;52.222;4.510;2023-02-28T05:39:56;6.23;;;3.37;;
27013;SDS011;14556;52.222;4.510;2023-02-28T05:42:22;6.63;;;3.53;;
27013;SDS011;14556;52.222;4.510;2023-02-28T05:44:49;8.03;;;3.60;;
27013;SDS011;14556;52.222;4.510;2023-02-28T05:47:16;10.00;;;4.20;;
27013;SDS011;14556;52.222;4.510;2023-02-28T05:49:43;6.50;;;4.30;;
27013;SDS011;14556;52.222;4.510;2023-02-28T05:52:09;9.33;;;4.10;;
27013;SDS011;14556;52.222;4.510;2023-02-28T05:54:36;8.90;;;4.00;;
27013;SDS011;14556;52.222;4.510;2023-02-28T05:57:03;12.10;;;4.83;;
27013;SDS011;14556;52.222;4.510;2023-02-28T05:59:37;7.10;;;3.87;;
27013;SDS011;14556;52.222;4.510;2023-02-28T06:02:06;8.17;;;4.47;;
27013;SDS011;14556;52.222;4.510;2023-02-28T06:04:36;7.47;;;3.77;;
27013;SDS011;14556;52.222;4.510;2023-02-28T06:07:03;6.73;;;3.67;;
27013;SDS011;14556;52.222;4.510;2023-02-28T06:09:29;8.73;;;4.10;;
27013;SDS011;14556;52.222;4.510;2023-02-28T06:11:57;9.43;;;5.50;;
27013;SDS011;14556;52.222;4.510;2023-02-28T06:14:23;9.13;;;4.00;;
27013;SDS011;14556;52.222;4.510;2023-02-28T06:16:50;7.37;;;4.40;;
27013;SDS011;14556;52.222;4.510;2023-02-28T06:19:16;7.73;;;3.97;;
27013;SDS011;14556;52.222;4.510;2023-02-28T06:21:44;10.33;;;4.97;;
27013;SDS011;14556;52.222;4.510;2023-02-28T06:24:10;7.53;;;4.33;;
27013;SDS011;14556;52.222;4.510;2023-02-28T06:26:37;7.20;;;4.13;;
27013;SDS011;14556;52.222;4.510;2023-02-28T06:29:03;5.97;;;4.27;;
27013;SDS011;14556;52.222;4.510;2023-02-28T06:31:29;11.60;;;5.13;;
27013;SDS011;14556;52.222;4.510;2023-02-28T06:33:57;9.93;;;4.77;;
27013;SDS011;14556;52.222;4.510;2023-02-28T06:36:23;11.80;;;5.13;;
27013;SDS011;14556;52.222;4.510;2023-02-28T06:38:49;10.90;;;4.73;;
27013;SDS011;14556;52.222;4.510;2023-02-28T06:41:21;10.27;;;5.57;;
27013;SDS011;14556;52.222;4.510;2023-02-28T06:43:48;8.77;;;4.77;;
27013;SDS011;14556;52.222;4.510;2023-02-28T06:46:14;6.97;;;4.77;;
27013;SDS011;14556;52.222;4.510;2023-02-28T06:48:42;7.33;;;4.80;;
27013;SDS011;14556;52.222;4.510;2023-02-28T06:51:10;6.60;;;4.80;;
27013;SDS011;14556;52.222;4.510;2023-02-28T06:53:37;12.27;;;4.87;;
27013;SDS011;14556;52.222;4.510;2023-02-28T06:56:04;9.07;;;5.13;;
27013;SDS011;14556;52.222;4.510;2023-02-28T06:58:31;8.07;;;4.70;;
27013;SDS011;14556;52.222;4.510;2023-02-28T07:00:58;10.00;;;5.60;;
27013;SDS011;14556;52.222;4.510;2023-02-28T07:03:24;7.00;;;4.73;;
27013;SDS011;14556;52.222;4.510;2023-02-28T07:05:50;13.13;;;5.50;;
27013;SDS011;14556;52.222;4.510;2023-02-28T07:08:17;11.23;;;5.37;;
27013;SDS011;14556;52.222;4.510;2023-02-28T07:10:43;7.77;;;5.10;;
27013;SDS011;14556;52.222;4.510;2023-02-28T07:13:10;10.77;;;5.67;;
27013;SDS011;14556;52.222;4.510;2023-02-28T07:15:36;10.03;;;6.27;;
27013;SDS011;14556;52.222;4.510;2023-02-28T07:18:07;9.87;;;6.10;;
27013;SDS011;14556;52.222;4.510;2023-02-28T07:20:33;9.13;;;5.87;;
27013;SDS011;14556;52.222;4.510;2023-02-28T07:23:00;10.93;;;6.07;;
27013;SDS011;14556;52.222;4.510;2023-02-28T07:25:27;8.87;;;5.93;;
27013;SDS011;14556;52.222;4.510;2023-02-28T07:27:53;7.83;;;4.93;;
27013;SDS011;14556;52.222;4.510;2023-02-28T07:30:20;9.47;;;5.23;;
27013;SDS011;14556;52.222;4.510;2023-02-28T07:32:46;5.80;;;4.50;;
27013;SDS011;14556;52.222;4.510;2023-02-28T07:35:13;8.07;;;5.10;;
27013;SDS011;14556;52.222;4.510;2023-02-28T07:37:41;8.53;;;4.37;;
27013;SDS011;14556;52.222;4.510;2023-02-28T07:40:09;6.57;;;4.30;;
27013;SDS011;14556;52.222;4.510;2023-02-28T07:42:37;5.70;;;3.80;;
27013;SDS011;14556;52.222;4.510;2023-02-28T07:45:05;5.37;;;3.43;;
27013;SDS011;14556;52.222;4.510;2023-02-28T07:47:31;5.90;;;3.67;;
27013;SDS011;14556;52.222;4.510;2023-02-28T07:49:59;5.00;;;3.67;;
27013;SDS011;14556;52.222;4.510;2023-02-28T07:52:25;5.57;;;3.23;;
27013;SDS011;14556;52.222;4.510;2023-02-28T07:54:53;7.93;;;3.70;;
27013;SDS011;14556;52.222;4.510;2023-02-28T07:57:19;6.40;;;3.80;;
27013;SDS011;14556;52.222;4.510;2023-02-28T07:59:45;6.10;;;4.03;;
27013;SDS011;14556;52.222;4.510;2023-02-28T08:02:12;6.00;;;4.07;;
27013;SDS011;14556;52.222;4.510;2023-02-28T08:04:39;6.30;;;4.27;;
27013;SDS011;14556;52.222;4.510;2023-02-28T08:07:06;4.93;;;3.50;;
27013;SDS011;14556;52.222;4.510;2023-02-28T08:09:33;4.73;;;4.03;;
27013;SDS011;14556;52.222;4.510;2023-02-28T08:12:00;5.63;;;3.90;;
27013;SDS011;14556;52.222;4.510;2023-02-28T08:14:26;5.10;;;3.47;;
27013;SDS011;14556;52.222;4.510;2023-02-28T08:16:53;6.87;;;4.53;;
27013;SDS011;14556;52.222;4.510;2023-02-28T08:19:19;4.33;;;3.40;;
27013;SDS011;14556;52.222;4.510;2023-02-28T08:21:45;4.63;;;3.70;;
27013;SDS011;14556;52.222;4.510;2023-02-28T08:24:12;4.30;;;3.10;;
27013;SDS011;14556;52.222;4.510;2023-02-28T08:26:38;6.50;;;4.07;;
27013;SDS011;14556;52.222;4.510;2023-02-28T08:29:04;7.97;;;4.10;;
27013;SDS011;14556;52.222;4.510;2023-02-28T08:31:33;5.60;;;3.30;;
27013;SDS011;14556;52.222;4.510;2023-02-28T08:34:05;6.80;;;3.57;;
27013;SDS011;14556;52.222;4.510;2023-02-28T08:36:31;6.20;;;3.70;;
27013;SDS011;14556;52.222;4.510;2023-02-28T08:38:58;6.63;;;4.13;;
27013;SDS011;14556;52.222;4.510;2023-02-28T08:41:25;5.90;;;3.80;;
27013;SDS011;14556;52.222;4.510;2023-02-28T08:43:52;7.83;;;4.13;;
27013;SDS011;14556;52.222;4.510;2023-02-28T08:46:20;5.87;;;4.07;;
27013;SDS011;14556;52.222;4.510;2023-02-28T08:48:46;6.00;;;3.60;;
27013;SDS011;14556;52.222;4.510;2023-02-28T08:51:15;5.07;;;3.87;;
27013;SDS011;14556;52.222;4.510;2023-02-28T08:53:44;6.37;;;4.03;;
27013;SDS011;14556;52.222;4.510;2023-02-28T08:56:12;4.80;;;3.77;;
27013;SDS011;14556;52.222;4.510;2023-02-28T08:58:39;5.90;;;4.07;;
27013;SDS011;14556;52.222;4.510;2023-02-28T09:01:10;6.50;;;3.87;;
27013;SDS011;14556;52.222;4.510;2023-02-28T09:03:36;5.87;;;4.17;;
27013;SDS011;14556;52.222;4.510;2023-02-28T09:06:03;5.73;;;3.70;;
27013;SDS011;14556;52.222;4.510;2023-02-28T09:08:30;4.73;;;3.80;;
27013;SDS011;14556;52.222;4.510;2023-02-28T09:10:57;6.17;;;4.23;;
27013;SDS011;14556;52.222;4.510;2023-02-28T09:13:26;5.40;;;3.70;;
27013;SDS011;14556;52.222;4.510;2023-02-28T09:15:56;4.47;;;3.23;;
27013;SDS011;14556;52.222;4.510;2023-02-28T09:18:23;5.30;;;3.27;;
27013;SDS011;14556;52.222;4.510;2023-02-28T09:20:49;6.20;;;3.40;;
27013;SDS011;14556;52.222;4.510;2023-02-28T09:23:16;5.20;;;3.47;;
27013;SDS011;14556;52.222;4.510;2023-02-28T09:25:46;7.23;;;3.40;;
27013;SDS011;14556;52.222;4.510;2023-02-28T09:28:13;5.13;;;3.30;;
27013;SDS011;14556;52.222;4.510;2023-02-28T09:30:42;3.73;;;2.93;;
27013;SDS011;14556;52.222;4.510;2023-02-28T09:33:09;4.57;;;3.63;;
27013;SDS011;14556;52.222;4.510;2023-02-28T09:35:36;4.83;;;3.10;;
27013;SDS011;14556;52.222;4.510;2023-02-28T09:38:03;6.33;;;3.37;;
27013;SDS011;14556;52.222;4.510;2023-02-28T09:40:30;4.53;;;3.07;;
27013;SDS011;14556;52.222;4.510;2023-02-28T09:42:57;4.70;;;3.03;;
27013;SDS011;14556;52.222;4.510;2023-02-28T09:47:56;3.93;;;2.90;;
27013;SDS011;14556;52.222;4.510;2023-02-28T09:50:33;5.27;;;3.17;;
27013;SDS011;14556;52.222;4.510;2023-02-28T09:53:02;3.63;;;3.23;;
27013;SDS011;14556;52.222;4.510;2023-02-28T09:55:33;5.23;;;3.60;;
27013;SDS011;14556;52.222;4.510;2023-02-28T09:58:15;5.50;;;3.27;;
27013;SDS011;14556;52.222;4.510;2023-02-28T10:00:43;4.60;;;3.37;;
27013;SDS011;14556;52.222;4.510;2023-02-28T10:05:59;6.17;;;3.47;;
27013;SDS011;14556;52.222;4.510;2023-02-28T10:11:12;4.73;;;2.67;;
27013;SDS011;14556;52.222;4.510;2023-02-28T10:13:46;6.60;;;3.27;;
27013;SDS011;14556;52.222;4.510;2023-02-28T10:16:18;4.10;;;3.03;;
27013;SDS011;14556;52.222;4.510;2023-02-28T10:18:47;4.30;;;3.00;;
27013;SDS011;14556;52.222;4.510;2023-02-28T10:21:25;5.07;;;3.13;;
27013;SDS011;14556;52.222;4.510;2023-02-28T10:23:53;4.80;;;2.87;;
27013;SDS011;14556;52.222;4.510;2023-02-28T10:26:22;7.33;;;3.20;;
27013;SDS011;14556;52.222;4.510;2023-02-28T10:28:52;4.53;;;2.93;;
27013;SDS011;14556;52.222;4.510;2023-02-28T10:31:19;5.93;;;3.10;;
27013;SDS011;14556;52.222;4.510;2023-02-28T10:33:46;4.87;;;2.97;;
27013;SDS011;14556;52.222;4.510;2023-02-28T10:36:17;5.03;;;3.90;;
27013;SDS011;14556;52.222;4.510;2023-02-28T10:38:45;5.63;;;3.23;;
27013;SDS011;14556;52.222;4.510;2023-02-28T10:43:39;5.70;;;4.10;;
27013;SDS011;14556;52.222;4.510;2023-02-28T10:48:38;3.03;;;2.63;;
27013;SDS011;14556;52.222;4.510;2023-02-28T10:51:07;4.77;;;2.80;;
27013;SDS011;14556;52.222;4.510;2023-02-28T10:53:38;4.30;;;2.80;;
27013;SDS011;14556;52.222;4.510;2023-02-28T10:56:25;5.17;;;2.70;;
27013;SDS011;14556;52.222;4.510;2023-02-28T10:59:02;2.67;;;2.20;;
27013;SDS011;14556;52.222;4.510;2023-02-28T11:03:59;7.50;;;3.07;;
27013;SDS011;14556;52.222;4.510;2023-02-28T11:06:26;2.20;;;2.00;;
27013;SDS011;14556;52.222;4.510;2023-02-28T11:08:55;4.97;;;2.73;;
27013;SDS011;14556;52.222;4.510;2023-02-28T11:11:23;5.03;;;2.67;;
27013;SDS011;14556;52.222;4.510;2023-02-28T11:13:57;3.87;;;2.03;;
27013;SDS011;14556;52.222;4.510;2023-02-28T11:16:33;3.97;;;2.50;;
27013;SDS011;14556;52.222;4.510;2023-02-28T11:19:00;3.73;;;2.30;;
27013;SDS011;14556;52.222;4.510;2023-02-28T11:21:27;5.50;;;2.73;;
27013;SDS011;14556;52.222;4.510;2023-02-28T11:24:06;4.80;;;2.83;;
27013;SDS011;14556;52.222;4.510;2023-02-28T11:26:42;5.17;;;2.30;;
27013;SDS011;14556;52.222;4.510;2023-02-28T11:29:28;6.27;;;2.40;;
27013;SDS011;14556;52.222;4.510;2023-02-28T11:34:28;6.33;;;2.50;;
27013;SDS011;14556;52.222;4.510;2023-02-28T11:36:55;3.40;;;2.30;;
27013;SDS011;14556;52.222;4.510;2023-02-28T11:39:23;2.50;;;1.70;;
27013;SDS011;14556;52.222;4.510;2023-02-28T11:42:08;2.83;;;2.10;;
27013;SDS011;14556;52.222;4.510;2023-02-28T11:44:47;2.40;;;2.00;;
27013;SDS011;14556;52.222;4.510;2023-02-28T12:00:29;2.53;;;1.80;;
27013;SDS011;14556;52.222;4.510;2023-02-28T12:27:57;2.63;;;1.57;;
27013;SDS011;14556;52.222;4.510;2023-02-28T12:30:24;3.50;;;1.90;;
27013;SDS011;14556;52.222;4.510;2023-02-28T12:33:01;2.60;;;1.83;;
27013;SDS011;14556;52.222;4.510;2023-02-28T12:35:33;3.83;;;1.63;;
27013;SDS011;14556;52.222;4.510;2023-02-28T12:38:10;3.47;;;1.70;;
27013;SDS011;14556;52.222;4.510;2023-02-28T12:43:09;2.87;;;1.50;;
27013;SDS011;14556;52.222;4.510;2023-02-28T12:48:21;1.60;;;1.40;;
27013;SDS011;14556;52.222;4.510;2023-02-28T12:50:50;5.27;;;2.20;;
27013;SDS011;14556;52.222;4.510;2023-02-28T12:55:48;2.77;;;1.83;;
27013;SDS011;14556;52.222;4.510;2023-02-28T12:58:20;2.87;;;1.97;;
27013;SDS011;14556;52.222;4.510;2023-02-28T13:01:04;3.30;;;1.80;;
27013;SDS011;14556;52.222;4.510;2023-02-28T13:06:11;4.10;;;2.10;;
27013;SDS011;14556;52.222;4.510;2023-02-28T13:09:03;1.90;;;1.67;;
27013;SDS011;14556;52.222;4.510;2023-02-28T13:11:31;2.50;;;1.93;;
27013;SDS011;14556;52.222;4.510;2023-02-28T13:14:00;2.83;;;1.90;;
27013;SDS011;14556;52.222;4.510;2023-02-28T13:16:27;2.53;;;1.83;;
27013;SDS011;14556;52.222;4.510;2023-02-28T13:18:57;3.13;;;2.07;;
27013;SDS011;14556;52.222;4.510;2023-02-28T13:21:40;4.87;;;2.30;;
27013;SDS011;14556;52.222;4.510;2023-02-28T13:24:07;3.57;;;2.40;;
27013;SDS011;14556;52.222;4.510;2023-02-28T13:34:21;3.23;;;1.93;;
27013;SDS011;14556;52.222;4.510;2023-02-28T13:36:48;2.23;;;1.73;;
27013;SDS011;14556;52.222;4.510;2023-02-28T13:47:29;3.30;;;2.10;;
27013;SDS011;14556;52.222;4.510;2023-02-28T13:52:48;4.40;;;1.93;;
27013;SDS011;14556;52.222;4.510;2023-02-28T13:55:21;2.30;;;1.77;;
27013;SDS011;14556;52.222;4.510;2023-02-28T14:00:27;5.60;;;2.23;;
27013;SDS011;14556;52.222;4.510;2023-02-28T14:05:21;3.13;;;1.90;;
27013;SDS011;14556;52.222;4.510;2023-02-28T14:07:52;4.63;;;2.23;;
27013;SDS011;14556;52.222;4.510;2023-02-28T14:10:30;3.47;;;2.17;;
27013;SDS011;14556;52.222;4.510;2023-02-28T14:15:30;3.17;;;1.73;;
27013;SDS011;14556;52.222;4.510;2023-02-28T14:18:02;2.67;;;1.97;;
27013;SDS011;14556;52.222;4.510;2023-02-28T14:20:30;2.43;;;1.80;;
27013;SDS011;14556;52.222;4.510;2023-02-28T14:38:19;2.97;;;2.07;;
27013;SDS011;14556;52.222;4.510;2023-02-28T14:40:47;4.50;;;2.03;;
27013;SDS011;14556;52.222;4.510;2023-02-28T14:43:20;3.27;;;2.10;;
27013;SDS011;14556;52.222;4.510;2023-02-28T14:45:49;3.10;;;2.20;;
27013;SDS011;14556;52.222;4.510;2023-02-28T14:48:16;3.10;;;2.20;;
27013;SDS011;14556;52.222;4.510;2023-02-28T14:50:48;5.60;;;2.10;;
27013;SDS011;14556;52.222;4.510;2023-02-28T14:53:18;2.73;;;1.97;;
27013;SDS011;14556;52.222;4.510;2023-02-28T14:55:46;2.77;;;2.10;;
27013;SDS011;14556;52.222;4.510;2023-02-28T14:58:21;4.80;;;2.20;;
27013;SDS011;14556;52.222;4.510;2023-02-28T15:00:49;3.27;;;2.10;;
27013;SDS011;14556;52.222;4.510;2023-02-28T15:05:52;5.03;;;2.23;;
27013;SDS011;14556;52.222;4.510;2023-02-28T15:08:20;2.73;;;2.23;;
27013;SDS011;14556;52.222;4.510;2023-02-28T15:10:53;3.40;;;1.97;;
27013;SDS011;14556;52.222;4.510;2023-02-28T15:13:20;2.43;;;2.20;;
27013;SDS011;14556;52.222;4.510;2023-02-28T15:15:49;2.30;;;1.87;;
27013;SDS011;14556;52.222;4.510;2023-02-28T15:21:07;2.93;;;2.30;;
27013;SDS011;14556;52.222;4.510;2023-02-28T15:23:34;2.10;;;1.93;;
27013;SDS011;14556;52.222;4.510;2023-02-28T15:26:02;2.43;;;2.07;;
27013;SDS011;14556;52.222;4.510;2023-02-28T15:28:28;3.40;;;1.60;;
27013;SDS011;14556;52.222;4.510;2023-02-28T15:30:57;2.47;;;1.87;;
27013;SDS011;14556;52.222;4.510;2023-02-28T15:33:25;1.90;;;1.60;;
27013;SDS011;14556;52.222;4.510;2023-02-28T15:36:02;4.20;;;2.40;;
27013;SDS011;14556;52.222;4.510;2023-02-28T15:38:29;2.00;;;1.70;;
27013;SDS011;14556;52.222;4.510;2023-02-28T15:40:59;4.93;;;2.00;;
27013;SDS011;14556;52.222;4.510;2023-02-28T15:43:27;4.20;;;1.70;;
27013;SDS011;14556;52.222;4.510;2023-02-28T15:46:01;2.27;;;2.07;;
27013;SDS011;14556;52.222;4.510;2023-02-28T15:48:29;1.80;;;1.53;;
27013;SDS011;14556;52.222;4.510;2023-02-28T15:53:24;2.37;;;1.83;;
27013;SDS011;14556;52.222;4.510;2023-02-28T15:55:55;3.43;;;2.40;;
27013;SDS011;14556;52.222;4.510;2023-02-28T15:58:22;2.23;;;1.70;;
27013;SDS011;14556;52.222;4.510;2023-02-28T16:00:59;3.70;;;2.07;;
27013;SDS011;14556;52.222;4.510;2023-02-28T16:03:27;3.70;;;1.80;;
27013;SDS011;14556;52.222;4.510;2023-02-28T16:06:09;2.23;;;1.77;;
27013;SDS011;14556;52.222;4.510;2023-02-28T16:08:46;3.07;;;2.00;;
27013;SDS011;14556;52.222;4.510;2023-02-28T16:11:14;4.43;;;2.33;;
27013;SDS011;14556;52.222;4.510;2023-02-28T16:13:41;5.50;;;2.20;;
27013;SDS011;14556;52.222;4.510;2023-02-28T16:16:07;3.43;;;2.20;;
27013;SDS011;14556;52.222;4.510;2023-02-28T16:18:34;4.30;;;2.20;;
27013;SDS011;14556;52.222;4.510;2023-02-28T16:21:00;4.23;;;2.00;;
27013;SDS011;14556;52.222;4.510;2023-02-28T16:23:26;2.73;;;2.10;;
27013;SDS011;14556;52.222;4.510;2023-02-28T16:25:53;2.13;;;1.93;;
27013;SDS011;14556;52.222;4.510;2023-02-28T16:28:20;2.47;;;2.00;;
27013;SDS011;14556;52.222;4.510;2023-02-28T16:30:47;2.23;;;1.70;;
27013;SDS011;14556;52.222;4.510;2023-02-28T16:33:14;2.60;;;2.33;;
27013;SDS011;14556;52.222;4.510;2023-02-28T16:35:40;2.57;;;2.20;;
27013;SDS011;14556;52.222;4.510;2023-02-28T16:38:07;2.20;;;1.83;;
27013;SDS011;14556;52.222;4.510;2023-02-28T16:40:34;3.07;;;2.27;;
27013;SDS011;14556;52.222;4.510;2023-02-28T16:43:01;2.00;;;1.90;;
27013;SDS011;14556;52.222;4.510;2023-02-28T16:45:30;3.47;;;2.27;;
27013;SDS011;14556;52.222;4.510;2023-02-28T16:47:57;3.10;;;2.40;;
27013;SDS011;14556;52.222;4.510;2023-02-28T16:50:24;5.70;;;2.40;;
27013;SDS011;14556;52.222;4.510;2023-02-28T16:52:51;3.87;;;2.17;;
27013;SDS011;14556;52.222;4.510;2023-02-28T16:55:21;3.70;;;2.40;;
27013;SDS011;14556;52.222;4.510;2023-02-28T16:57:49;2.80;;;2.10;;
27013;SDS011;14556;52.222;4.510;2023-02-28T17:00:17;5.73;;;2.43;;
27013;SDS011;14556;52.222;4.510;2023-02-28T17:02:44;3.03;;;2.33;;
27013;SDS011;14556;52.222;4.510;2023-02-28T17:05:11;5.30;;;2.30;;
27013;SDS011;14556;52.222;4.510;2023-02-28T17:07:38;2.97;;;2.40;;
27013;SDS011;14556;52.222;4.510;2023-02-28T17:10:21;4.30;;;2.43;;
27013;SDS011;14556;52.222;4.510;2023-02-28T17:12:48;6.17;;;2.40;;
27013;SDS011;14556;52.222;4.510;2023-02-28T17:15:16;6.60;;;2.83;;
27013;SDS011;14556;52.222;4.510;2023-02-28T17:17:43;9.40;;;3.43;;
27013;SDS011;14556;52.222;4.510;2023-02-28T17:20:14;6.97;;;2.90;;
27013;SDS011;14556;52.222;4.510;2023-02-28T17:22:41;4.83;;;2.80;;
27013;SDS011;14556;52.222;4.510;2023-02-28T17:25:08;6.97;;;3.40;;